createdAt,value
2023-03-11T00:00:30.828Z,98468.8
2023-03-11T00:06:06.347Z,98459.6
2023-03-11T00:11:42.368Z,98458.7
2023-03-11T00:17:17.275Z,98462.1
2023-03-11T00:22:52.381Z,98455.3
2023-03-11T00:28:27.714Z,98451.1
2023-03-11T00:34:03.210Z,98451
2023-03-11T00:39:39.901Z,98458
2023-03-11T00:45:17.995Z,98462.7
2023-03-11T00:50:53.445Z,98467.1
2023-03-11T00:56:28.638Z,98479.7
2023-03-11T01:02:05.022Z,98484.6
2023-03-11T01:07:41.502Z,98483.8
2023-03-11T01:13:17.262Z,98466.8
2023-03-11T01:18:53.409Z,98467.8
2023-03-11T01:24:28.222Z,98458.3
2023-03-11T01:30:03.283Z,98460.6
2023-03-11T01:35:40.609Z,98451.5
2023-03-11T01:41:16.051Z,98449.7
2023-03-11T01:46:53.197Z,98459.5
2023-03-11T01:52:31.976Z,98461.9
2023-03-11T01:58:07.291Z,98450.7
2023-03-11T02:03:42.528Z,98448
2023-03-11T02:09:17.450Z,98424.4
2023-03-11T02:14:53.158Z,98411.5
2023-03-11T02:20:28.658Z,98414.7
2023-03-11T02:26:04.398Z,98400.2
2023-03-11T02:31:43.940Z,98398
2023-03-11T02:37:19.940Z,98393.3
2023-03-11T02:42:55.388Z,98399.1
2023-03-11T02:48:30.447Z,98399.2
2023-03-11T02:54:05.759Z,98406
2023-03-11T02:59:41.493Z,98410.5
2023-03-11T03:05:16.478Z,98405
2023-03-11T03:10:51.861Z,98393.7
2023-03-11T03:16:27.363Z,98393
2023-03-11T03:22:02.743Z,98386
2023-03-11T03:27:37.632Z,98391.6
2023-03-11T03:33:14.144Z,98392.2
2023-03-11T03:38:49.175Z,98392.4
2023-03-11T03:44:30.179Z,98386.4
2023-03-11T03:50:06.381Z,98375.6
2023-03-11T03:55:41.595Z,98380.6
2023-03-11T04:01:17.201Z,98374.1
2023-03-11T04:06:52.390Z,98377.2
2023-03-11T04:12:35.972Z,98385.3
2023-03-11T04:18:12.122Z,98382.6
2023-03-11T04:23:47.375Z,98375.9
2023-03-11T04:29:22.692Z,98377.1
2023-03-11T04:34:58.198Z,98381.3
2023-03-11T04:41:17.688Z,98389
2023-03-11T04:46:52.853Z,98399.8
2023-03-11T04:52:28.218Z,98391.2
2023-03-11T04:58:03.763Z,98387.9
2023-03-11T05:03:38.928Z,98388.1
2023-03-11T05:09:14.435Z,98397.3
2023-03-11T05:14:50.527Z,98396.4
2023-03-11T05:20:27.017Z,98408.5
2023-03-11T05:26:02.327Z,98415.5
2023-03-11T05:31:38.192Z,98431.4
2023-03-11T05:37:13.904Z,98449.5
2023-03-11T05:42:49.376Z,98453.9
2023-03-11T05:48:24.422Z,98454.7
2023-03-11T05:54:00.503Z,98466
2023-03-11T05:59:36.259Z,98464.3
2023-03-11T06:05:14.728Z,98461
2023-03-11T06:10:50.905Z,98457.2
2023-03-11T06:16:33.310Z,98458.7
2023-03-11T06:22:09.622Z,98467.4
2023-03-11T06:27:44.779Z,98463.3
2023-03-11T06:33:19.671Z,98457
2023-03-11T06:38:55.315Z,98460.7
2023-03-11T06:44:30.552Z,98479.9
2023-03-11T06:50:05.566Z,98471.8
2023-03-11T06:55:42.621Z,98492.1
2023-03-11T07:01:19.188Z,98493.1
2023-03-11T07:06:54.735Z,98508.2
2023-03-11T07:12:30.349Z,98504.3
2023-03-11T07:18:07.318Z,98501.7
2023-03-11T07:23:42.365Z,98499.9
2023-03-11T07:29:26.404Z,98504.2
2023-03-11T07:35:02.078Z,98518.8
2023-03-11T07:40:38.481Z,98532.3
2023-03-11T07:46:20.706Z,98538.7
2023-03-11T07:51:56.904Z,98530.8
2023-03-11T07:57:32.869Z,98535.9
2023-03-11T08:03:08.217Z,98546
2023-03-11T08:08:43.869Z,98563.5
2023-03-11T08:14:19.265Z,98576.2
2023-03-11T08:19:54.896Z,98570.8
2023-03-11T08:25:29.959Z,98588.1
2023-03-11T08:31:05.423Z,98596.7
2023-03-11T08:36:43.180Z,98606.2
2023-03-11T08:42:18.277Z,98607.5
2023-03-11T08:47:53.515Z,98613.9
2023-03-11T08:53:28.606Z,98616.3
2023-03-11T08:59:04.212Z,98614.9
2023-03-11T09:04:40.015Z,98630.6
2023-03-11T09:10:15.327Z,98638.1
2023-03-11T09:15:50.648Z,98637.1
2023-03-11T09:21:27.449Z,98630.9
2023-03-11T09:27:02.941Z,98628.9
2023-03-11T09:32:38.290Z,98635.4
2023-03-11T09:38:13.735Z,98654.5
2023-03-11T09:43:48.946Z,98661.8
2023-03-11T09:49:24.635Z,98658.8
2023-03-11T09:55:00.148Z,98661.5
2023-03-11T10:00:35.588Z,98658.8
2023-03-11T10:06:10.494Z,98657
2023-03-11T10:11:46.249Z,98661.3
2023-03-11T10:17:21.695Z,98653
2023-03-11T10:22:58.071Z,98651.3
2023-03-11T10:28:32.938Z,98657.2
2023-03-11T10:34:08.516Z,98666.5
2023-03-11T10:39:43.344Z,98670.4
2023-03-11T10:45:18.429Z,98675.2
2023-03-11T10:50:54.096Z,98680.3
2023-03-11T10:56:50.488Z,98667.6
2023-03-11T11:02:23.588Z,98665.7
2023-03-11T11:07:59.822Z,98688.2
2023-03-11T11:13:36.719Z,98687
2023-03-11T11:19:11.946Z,98688.5
2023-03-11T11:24:47.908Z,98675.4
2023-03-11T11:30:23.965Z,98670.9
2023-03-11T11:35:59.150Z,98675.3
2023-03-11T11:41:34.648Z,98669.9
2023-03-11T11:47:10.816Z,98655
2023-03-11T11:52:48.202Z,98655.8
2023-03-11T11:58:23.768Z,98656.4
2023-03-11T12:03:59.631Z,98652.3
2023-03-11T12:09:37.091Z,98652.9
2023-03-11T12:15:12.572Z,98639.9
2023-03-11T12:20:48.256Z,98630.9
2023-03-11T12:26:23.280Z,98619.6
2023-03-11T12:31:59.185Z,98617.3
2023-03-11T12:37:34.519Z,98615
2023-03-11T12:43:10.057Z,98617.3
2023-03-11T12:48:45.900Z,98619.8
2023-03-11T12:54:42.905Z,98621.8
2023-03-11T13:00:16.515Z,98618.5
2023-03-11T13:05:52.120Z,98615
2023-03-11T13:11:27.431Z,98613.1
2023-03-11T13:17:03.039Z,98611.6
2023-03-11T13:22:38.292Z,98605.9
2023-03-11T13:28:16.609Z,98609.3
2023-03-11T13:33:51.867Z,98600.6
2023-03-11T13:39:27.598Z,98605
2023-03-11T13:45:03.044Z,98595.2
2023-03-11T13:50:38.563Z,98599.3
2023-03-11T13:56:14.088Z,98597.9
2023-03-11T14:01:49.458Z,98598.6
2023-03-11T14:07:25.023Z,98591.6
2023-03-11T14:13:04.299Z,98595.1
2023-03-11T14:18:40.148Z,98601
2023-03-11T14:24:16.273Z,98611.8
2023-03-11T14:29:52.833Z,98631.4
2023-03-11T14:35:28.202Z,98637.4
2023-03-11T14:41:04.177Z,98638.6
2023-03-11T14:46:45.711Z,98642.2
2023-03-11T14:52:20.789Z,98648
2023-03-11T14:57:56.999Z,98651.3
2023-03-11T15:03:32.746Z,98654.4
2023-03-11T15:09:08.876Z,98657.2
2023-03-11T15:14:44.997Z,98654.5
2023-03-11T15:20:20.405Z,98661.2
2023-03-11T15:25:55.699Z,98661.2
2023-03-11T15:31:30.779Z,98681.6
2023-03-11T15:37:06.702Z,98679.1
2023-03-11T15:42:50.368Z,98679
2023-03-11T15:48:25.462Z,98680.2
2023-03-11T15:54:00.379Z,98688.1
2023-03-11T15:59:35.305Z,98693.3
2023-03-11T16:05:11.377Z,98699.8
2023-03-11T16:10:48.956Z,98706.8
2023-03-11T16:16:24.462Z,98704.9
2023-03-11T16:22:00.150Z,98712.4
2023-03-11T16:27:35.551Z,98708.4
2023-03-11T16:33:10.731Z,98712.1
2023-03-11T16:38:45.938Z,98709.3
2023-03-11T16:44:21.215Z,98722
2023-03-11T16:49:57.030Z,98713.4
2023-03-11T16:55:33.273Z,98727.9
2023-03-11T17:01:08.384Z,98725.1
2023-03-11T17:06:43.553Z,98734.3
2023-03-11T17:12:19.201Z,98733.2
2023-03-11T17:17:54.952Z,98743.6
2023-03-11T17:23:29.800Z,98746.2
2023-03-11T17:29:05.447Z,98744.1
2023-03-11T17:34:40.677Z,98742.6
2023-03-11T17:40:16.061Z,98757.6
2023-03-11T17:45:51.789Z,98757.2
2023-03-11T17:51:26.840Z,98760.4
2023-03-11T17:57:02.705Z,98771.6
2023-03-11T18:02:37.717Z,98782.1
2023-03-11T18:08:13.066Z,98797
2023-03-11T18:13:49.052Z,98802
2023-03-11T18:19:25.772Z,98800.3
2023-03-11T18:25:01.332Z,98790.2
2023-03-11T18:30:36.608Z,98804.1
2023-03-11T18:36:12.658Z,98810.6
2023-03-11T18:41:49.166Z,98819
2023-03-11T18:47:25.164Z,98833.6
2023-03-11T18:53:01.769Z,98832.6
2023-03-11T18:58:37.206Z,98835.2
2023-03-11T19:04:20.260Z,98833
2023-03-11T19:10:16.713Z,98822.4
2023-03-11T19:15:52.918Z,98824.8
2023-03-11T19:21:36.551Z,98817.4
2023-03-11T19:27:11.756Z,98814
2023-03-11T19:32:47.868Z,98825.2
2023-03-11T19:38:23.393Z,98823.1
2023-03-11T19:43:58.851Z,98816.1
2023-03-11T19:49:34.405Z,98827.2
2023-03-11T19:55:31.037Z,98835
2023-03-11T20:01:04.850Z,98816.1
2023-03-11T20:06:41.541Z,98824.1
2023-03-11T20:12:17.265Z,98822.1
2023-03-11T20:18:02.059Z,98829.6
2023-03-11T20:23:37.975Z,98829.3
2023-03-11T20:29:13.514Z,98828.6
2023-03-11T20:34:49.311Z,98828.3
2023-03-11T20:40:24.599Z,98840.5
2023-03-11T20:45:59.700Z,98839.5
2023-03-11T20:51:35.431Z,98842.5
2023-03-11T20:57:13.601Z,98858.6
2023-03-11T21:02:50.129Z,98872.7
2023-03-11T21:08:28.567Z,98878.6
2023-03-11T21:14:05.665Z,98884.9
2023-03-11T21:19:41.699Z,98875.3
2023-03-11T21:25:17.463Z,98869.5
2023-03-11T21:30:53.839Z,98867.5
2023-03-11T21:36:30.280Z,98873.2
2023-03-11T21:42:11.509Z,98870.1
2023-03-11T21:47:55.439Z,98866
2023-03-11T21:53:53.455Z,98870
2023-03-11T21:59:28.317Z,98864.2
2023-03-11T22:05:04.385Z,98862
2023-03-11T22:10:41.061Z,98859.5
2023-03-11T22:16:17.285Z,98857.1
2023-03-11T22:21:54.468Z,98852.3
2023-03-11T22:27:29.884Z,98848
2023-03-11T22:33:04.967Z,98851.8
2023-03-11T22:38:45.678Z,98853.8
2023-03-11T22:44:21.890Z,98856.5
2023-03-11T22:49:57.079Z,98850.6
2023-03-11T22:55:33.448Z,98850.6
2023-03-11T23:01:08.188Z,98856.3
2023-03-11T23:06:43.311Z,98857.2
2023-03-11T23:12:18.422Z,98864.6
2023-03-11T23:18:04.614Z,98863.9
2023-03-11T23:23:39.528Z,98861.6
2023-03-11T23:29:15.031Z,98863.2
2023-03-11T23:34:50.797Z,98860.9
2023-03-11T23:40:25.821Z,98860.3
2023-03-11T23:46:01.579Z,98859.2
2023-03-11T23:51:38.044Z,98864.6
2023-03-11T23:57:12.999Z,98868.2
